sensor_id;sensor_type;location;lat;lon;timestamp;temperature;humidity
75865;HTU21D;64510;46.704;38.274;2022-10-28T00:00:23;21.73;60.41
75865;HTU21D;64510;46.704;38.274;2022-10-28T00:02:49;21.73;60.41
75865;HTU21D;64510;46.704;38.274;2022-10-28T00:05:15;21.72;60.41
75865;HTU21D;64510;46.704;38.274;2022-10-28T00:07:41;21.73;60.42
75865;HTU21D;64510;46.704;38.274;2022-10-28T00:10:08;21.72;60.41
75865;HTU21D;64510;46.704;38.274;2022-10-28T00:12:35;21.72;60.42
75865;HTU21D;64510;46.704;38.274;2022-10-28T00:15:03;21.73;60.41
75865;HTU21D;64510;46.704;38.274;2022-10-28T00:17:29;21.73;60.40
75865;HTU21D;64510;46.704;38.274;2022-10-28T00:19:55;21.70;60.40
75865;HTU21D;64510;46.704;38.274;2022-10-28T00:22:22;21.70;60.40
75865;HTU21D;64510;46.704;38.274;2022-10-28T00:24:48;21.72;60.40
75865;HTU21D;64510;46.704;38.274;2022-10-28T00:27:14;21.69;60.41
75865;HTU21D;64510;46.704;38.274;2022-10-28T00:29:40;21.70;60.41
75865;HTU21D;64510;46.704;38.274;2022-10-28T00:32:06;21.70;60.41
75865;HTU21D;64510;46.704;38.274;2022-10-28T00:34:32;21.72;60.40
75865;HTU21D;64510;46.704;38.274;2022-10-28T00:36:58;21.72;60.41
75865;HTU21D;64510;46.704;38.274;2022-10-28T00:39:25;21.72;60.41
75865;HTU21D;64510;46.704;38.274;2022-10-28T00:41:54;21.72;60.40
75865;HTU21D;64510;46.704;38.274;2022-10-28T00:44:45;21.70;60.37
75865;HTU21D;64510;46.704;38.274;2022-10-28T00:52:30;21.69;60.46
75865;HTU21D;64510;46.704;38.274;2022-10-28T00:54:59;21.69;60.45
75865;HTU21D;64510;46.704;38.274;2022-10-28T00:57:29;21.69;60.44
75865;HTU21D;64510;46.704;38.274;2022-10-28T00:59:56;21.68;60.49
75865;HTU21D;64510;46.704;38.274;2022-10-28T01:02:24;21.68;60.45
75865;HTU21D;64510;46.704;38.274;2022-10-28T01:04:50;21.68;60.46
75865;HTU21D;64510;46.704;38.274;2022-10-28T01:07:16;21.69;60.44
75865;HTU21D;64510;46.704;38.274;2022-10-28T01:09:43;21.69;60.45
75865;HTU21D;64510;46.704;38.274;2022-10-28T01:15:06;21.68;60.41
75865;HTU21D;64510;46.704;38.274;2022-10-28T01:23:39;21.65;60.49
75865;HTU21D;64510;46.704;38.274;2022-10-28T01:26:28;21.65;60.54
75865;HTU21D;64510;46.704;38.274;2022-10-28T01:29:23;21.64;60.51
75865;HTU21D;64510;46.704;38.274;2022-10-28T01:37:20;21.65;60.57
75865;HTU21D;64510;46.704;38.274;2022-10-28T01:42:45;21.63;60.57
75865;HTU21D;64510;46.704;38.274;2022-10-28T01:48:07;21.63;60.55
75865;HTU21D;64510;46.704;38.274;2022-10-28T01:53:11;21.64;60.59
75865;HTU21D;64510;46.704;38.274;2022-10-28T01:55:41;21.63;60.58
75865;HTU21D;64510;46.704;38.274;2022-10-28T01:58:12;21.63;60.57
75865;HTU21D;64510;46.704;38.274;2022-10-28T02:00:42;21.64;60.57
75865;HTU21D;64510;46.704;38.274;2022-10-28T02:03:09;21.62;60.59
75865;HTU21D;64510;46.704;38.274;2022-10-28T02:16:49;21.63;60.56
75865;HTU21D;64510;46.704;38.274;2022-10-28T02:19:34;21.63;60.58
75865;HTU21D;64510;46.704;38.274;2022-10-28T02:22:23;21.62;60.59
75865;HTU21D;64510;46.704;38.274;2022-10-28T02:27:34;21.62;60.61
75865;HTU21D;64510;46.704;38.274;2022-10-28T02:30:16;21.61;60.57
75865;HTU21D;64510;46.704;38.274;2022-10-28T02:32:52;21.61;60.57
75865;HTU21D;64510;46.704;38.274;2022-10-28T02:35:37;21.62;60.57
75865;HTU21D;64510;46.704;38.274;2022-10-28T02:38:13;21.61;60.57
75865;HTU21D;64510;46.704;38.274;2022-10-28T02:40:45;21.62;60.58
75865;HTU21D;64510;46.704;38.274;2022-10-28T02:43:14;21.63;60.61
75865;HTU21D;64510;46.704;38.274;2022-10-28T02:45:46;21.63;60.56
75865;HTU21D;64510;46.704;38.274;2022-10-28T02:51:10;21.62;60.57
75865;HTU21D;64510;46.704;38.274;2022-10-28T02:53:49;21.61;60.55
75865;HTU21D;64510;46.704;38.274;2022-10-28T02:56:20;21.61;60.60
75865;HTU21D;64510;46.704;38.274;2022-10-28T02:58:47;21.62;60.60
75865;HTU21D;64510;46.704;38.274;2022-10-28T03:01:13;21.61;60.59
75865;HTU21D;64510;46.704;38.274;2022-10-28T03:03:40;21.62;60.57
75865;HTU21D;64510;46.704;38.274;2022-10-28T03:06:07;21.63;60.54
75865;HTU21D;64510;46.704;38.274;2022-10-28T03:08:33;21.63;60.54
75865;HTU21D;64510;46.704;38.274;2022-10-28T03:11:00;21.64;60.53
75865;HTU21D;64510;46.704;38.274;2022-10-28T03:13:26;21.63;60.54
75865;HTU21D;64510;46.704;38.274;2022-10-28T03:15:52;21.64;60.52
75865;HTU21D;64510;46.704;38.274;2022-10-28T03:18:18;21.64;60.52
75865;HTU21D;64510;46.704;38.274;2022-10-28T03:20:44;21.64;60.52
75865;HTU21D;64510;46.704;38.274;2022-10-28T03:23:11;21.64;60.51
75865;HTU21D;64510;46.704;38.274;2022-10-28T03:25:37;21.64;60.51
75865;HTU21D;64510;46.704;38.274;2022-10-28T03:28:03;21.63;60.51
75865;HTU21D;64510;46.704;38.274;2022-10-28T03:30:29;21.65;60.49
75865;HTU21D;64510;46.704;38.274;2022-10-28T03:32:55;21.65;60.50
75865;HTU21D;64510;46.704;38.274;2022-10-28T03:35:22;21.64;60.50
75865;HTU21D;64510;46.704;38.274;2022-10-28T03:37:48;21.64;60.50
75865;HTU21D;64510;46.704;38.274;2022-10-28T03:40:14;21.64;60.51
75865;HTU21D;64510;46.704;38.274;2022-10-28T03:42:40;21.65;60.48
75865;HTU21D;64510;46.704;38.274;2022-10-28T03:45:08;21.65;60.47
75865;HTU21D;64510;46.704;38.274;2022-10-28T03:47:34;21.64;60.49
75865;HTU21D;64510;46.704;38.274;2022-10-28T03:50:01;21.63;60.47
75865;HTU21D;64510;46.704;38.274;2022-10-28T03:52:27;21.64;60.49
75865;HTU21D;64510;46.704;38.274;2022-10-28T03:54:53;21.63;60.50
75865;HTU21D;64510;46.704;38.274;2022-10-28T03:57:19;21.64;60.48
75865;HTU21D;64510;46.704;38.274;2022-10-28T03:59:45;21.63;60.50
75865;HTU21D;64510;46.704;38.274;2022-10-28T04:02:12;21.63;60.51
75865;HTU21D;64510;46.704;38.274;2022-10-28T04:04:40;21.63;60.49
75865;HTU21D;64510;46.704;38.274;2022-10-28T04:07:06;21.63;60.50
75865;HTU21D;64510;46.704;38.274;2022-10-28T04:09:32;21.64;60.49
75865;HTU21D;64510;46.704;38.274;2022-10-28T04:11:58;21.63;60.49
75865;HTU21D;64510;46.704;38.274;2022-10-28T04:14:25;21.63;60.50
75865;HTU21D;64510;46.704;38.274;2022-10-28T04:16:51;21.63;60.49
75865;HTU21D;64510;46.704;38.274;2022-10-28T04:19:17;21.64;60.50
75865;HTU21D;64510;46.704;38.274;2022-10-28T04:21:43;21.63;60.52
75865;HTU21D;64510;46.704;38.274;2022-10-28T04:24:09;21.63;60.51
75865;HTU21D;64510;46.704;38.274;2022-10-28T04:26:36;21.63;60.51
75865;HTU21D;64510;46.704;38.274;2022-10-28T04:29:02;21.62;60.51
75865;HTU21D;64510;46.704;38.274;2022-10-28T04:31:28;21.62;60.51
75865;HTU21D;64510;46.704;38.274;2022-10-28T04:33:54;21.63;60.52
75865;HTU21D;64510;46.704;38.274;2022-10-28T04:36:20;21.63;60.50
75865;HTU21D;64510;46.704;38.274;2022-10-28T04:38:46;21.62;60.52
75865;HTU21D;64510;46.704;38.274;2022-10-28T04:41:13;21.62;60.49
75865;HTU21D;64510;46.704;38.274;2022-10-28T04:43:40;21.63;60.51
75865;HTU21D;64510;46.704;38.274;2022-10-28T04:46:06;21.63;60.52
75865;HTU21D;64510;46.704;38.274;2022-10-28T04:48:33;21.63;60.52
75865;HTU21D;64510;46.704;38.274;2022-10-28T04:50:59;21.63;60.54
75865;HTU21D;64510;46.704;38.274;2022-10-28T04:53:25;21.63;60.54
75865;HTU21D;64510;46.704;38.274;2022-10-28T04:55:56;21.63;60.51
75865;HTU21D;64510;46.704;38.274;2022-10-28T04:58:23;21.63;60.56
75865;HTU21D;64510;46.704;38.274;2022-10-28T05:00:49;21.62;60.55
75865;HTU21D;64510;46.704;38.274;2022-10-28T05:03:16;21.63;60.55
75865;HTU21D;64510;46.704;38.274;2022-10-28T05:05:42;21.61;60.56
75865;HTU21D;64510;46.704;38.274;2022-10-28T05:08:08;21.61;60.54
75865;HTU21D;64510;46.704;38.274;2022-10-28T05:10:34;21.63;60.56
75865;HTU21D;64510;46.704;38.274;2022-10-28T05:13:00;21.62;60.57
75865;HTU21D;64510;46.704;38.274;2022-10-28T05:15:26;21.63;60.57
75865;HTU21D;64510;46.704;38.274;2022-10-28T05:17:53;21.62;60.57
75865;HTU21D;64510;46.704;38.274;2022-10-28T05:20:19;21.62;60.56
75865;HTU21D;64510;46.704;38.274;2022-10-28T05:22:50;21.62;60.53
75865;HTU21D;64510;46.704;38.274;2022-10-28T05:25:19;21.62;60.57
75865;HTU21D;64510;46.704;38.274;2022-10-28T05:27:45;21.61;60.60
75865;HTU21D;64510;46.704;38.274;2022-10-28T05:30:12;21.61;60.59
75865;HTU21D;64510;46.704;38.274;2022-10-28T05:32:38;21.61;60.60
75865;HTU21D;64510;46.704;38.274;2022-10-28T05:35:05;21.62;60.60
75865;HTU21D;64510;46.704;38.274;2022-10-28T05:37:31;21.61;60.64
75865;HTU21D;64510;46.704;38.274;2022-10-28T05:39:57;21.62;60.62
75865;HTU21D;64510;46.704;38.274;2022-10-28T05:42:24;21.60;60.64
75865;HTU21D;64510;46.704;38.274;2022-10-28T05:44:50;21.61;60.64
75865;HTU21D;64510;46.704;38.274;2022-10-28T05:47:16;21.61;60.63
75865;HTU21D;64510;46.704;38.274;2022-10-28T05:49:43;21.61;60.65
75865;HTU21D;64510;46.704;38.274;2022-10-28T05:52:09;21.62;60.65
75865;HTU21D;64510;46.704;38.274;2022-10-28T05:54:35;21.62;60.64
75865;HTU21D;64510;46.704;38.274;2022-10-28T05:57:01;21.61;60.64
75865;HTU21D;64510;46.704;38.274;2022-10-28T05:59:27;21.62;60.64
75865;HTU21D;64510;46.704;38.274;2022-10-28T06:01:54;21.61;60.65
75865;HTU21D;64510;46.704;38.274;2022-10-28T06:04:20;21.61;60.65
75865;HTU21D;64510;46.704;38.274;2022-10-28T06:06:46;21.60;60.67
75865;HTU21D;64510;46.704;38.274;2022-10-28T06:09:12;21.62;60.66
75865;HTU21D;64510;46.704;38.274;2022-10-28T06:11:38;21.61;60.67
75865;HTU21D;64510;46.704;38.274;2022-10-28T06:14:05;21.61;60.67
75865;HTU21D;64510;46.704;38.274;2022-10-28T06:16:31;21.61;60.67
75865;HTU21D;64510;46.704;38.274;2022-10-28T06:18:57;21.61;60.69
75865;HTU21D;64510;46.704;38.274;2022-10-28T06:21:23;21.62;60.69
75865;HTU21D;64510;46.704;38.274;2022-10-28T06:23:49;21.61;60.70
75865;HTU21D;64510;46.704;38.274;2022-10-28T06:26:16;21.61;60.69
75865;HTU21D;64510;46.704;38.274;2022-10-28T06:28:46;21.62;60.67
75865;HTU21D;64510;46.704;38.274;2022-10-28T06:31:12;21.61;60.72
75865;HTU21D;64510;46.704;38.274;2022-10-28T06:33:38;21.61;60.72
75865;HTU21D;64510;46.704;38.274;2022-10-28T06:36:05;21.61;60.73
75865;HTU21D;64510;46.704;38.274;2022-10-28T06:38:31;21.62;60.73
75865;HTU21D;64510;46.704;38.274;2022-10-28T06:40:57;21.61;60.73
75865;HTU21D;64510;46.704;38.274;2022-10-28T06:43:24;21.61;60.72
75865;HTU21D;64510;46.704;38.274;2022-10-28T06:45:50;21.61;60.73
75865;HTU21D;64510;46.704;38.274;2022-10-28T06:48:21;21.61;60.73
75865;HTU21D;64510;46.704;38.274;2022-10-28T06:50:48;21.61;60.74
75865;HTU21D;64510;46.704;38.274;2022-10-28T06:53:14;21.61;60.74
75865;HTU21D;64510;46.704;38.274;2022-10-28T06:55:40;21.62;60.75
75865;HTU21D;64510;46.704;38.274;2022-10-28T06:58:06;21.61;60.74
75865;HTU21D;64510;46.704;38.274;2022-10-28T07:00:32;21.61;60.76
75865;HTU21D;64510;46.704;38.274;2022-10-28T07:02:59;21.61;60.76
75865;HTU21D;64510;46.704;38.274;2022-10-28T07:05:26;21.61;60.75
75865;HTU21D;64510;46.704;38.274;2022-10-28T07:07:52;21.61;60.76
75865;HTU21D;64510;46.704;38.274;2022-10-28T07:10:19;21.61;60.75
75865;HTU21D;64510;46.704;38.274;2022-10-28T07:12:45;21.61;60.76
75865;HTU21D;64510;46.704;38.274;2022-10-28T07:15:11;21.62;60.76
75865;HTU21D;64510;46.704;38.274;2022-10-28T07:17:37;21.60;60.76
75865;HTU21D;64510;46.704;38.274;2022-10-28T07:20:04;21.62;60.74
75865;HTU21D;64510;46.704;38.274;2022-10-28T07:22:30;21.61;60.76
75865;HTU21D;64510;46.704;38.274;2022-10-28T07:24:56;21.61;60.76
75865;HTU21D;64510;46.704;38.274;2022-10-28T07:27:22;21.61;60.76
75865;HTU21D;64510;46.704;38.274;2022-10-28T07:29:48;21.61;60.76
75865;HTU21D;64510;46.704;38.274;2022-10-28T07:32:15;21.63;60.76
75865;HTU21D;64510;46.704;38.274;2022-10-28T07:34:41;21.62;60.76
75865;HTU21D;64510;46.704;38.274;2022-10-28T07:37:07;21.63;60.76
75865;HTU21D;64510;46.704;38.274;2022-10-28T07:39:35;21.62;60.76
75865;HTU21D;64510;46.704;38.274;2022-10-28T07:42:02;21.61;60.77
75865;HTU21D;64510;46.704;38.274;2022-10-28T07:44:28;21.62;60.77
75865;HTU21D;64510;46.704;38.274;2022-10-28T07:46:54;21.62;60.78
75865;HTU21D;64510;46.704;38.274;2022-10-28T07:49:20;21.62;60.77
75865;HTU21D;64510;46.704;38.274;2022-10-28T07:51:49;21.62;60.76
75865;HTU21D;64510;46.704;38.274;2022-10-28T07:54:16;21.62;60.79
75865;HTU21D;64510;46.704;38.274;2022-10-28T07:56:42;21.63;60.74
75865;HTU21D;64510;46.704;38.274;2022-10-28T07:59:08;21.64;60.73
75865;HTU21D;64510;46.704;38.274;2022-10-28T08:01:34;21.64;60.70
75865;HTU21D;64510;46.704;38.274;2022-10-28T08:04:00;21.66;60.70
75865;HTU21D;64510;46.704;38.274;2022-10-28T08:06:27;21.65;60.69
75865;HTU21D;64510;46.704;38.274;2022-10-28T08:08:55;21.67;60.66
75865;HTU21D;64510;46.704;38.274;2022-10-28T08:11:22;21.67;60.66
75865;HTU21D;64510;46.704;38.274;2022-10-28T08:13:51;21.66;60.65
75865;HTU21D;64510;46.704;38.274;2022-10-28T08:16:18;21.67;60.66
75865;HTU21D;64510;46.704;38.274;2022-10-28T08:18:44;21.66;60.66
75865;HTU21D;64510;46.704;38.274;2022-10-28T08:21:12;21.69;60.65
75865;HTU21D;64510;46.704;38.274;2022-10-28T08:23:38;21.67;60.65
75865;HTU21D;64510;46.704;38.274;2022-10-28T08:26:04;21.68;60.65
75865;HTU21D;64510;46.704;38.274;2022-10-28T08:28:31;21.68;60.64
75865;HTU21D;64510;46.704;38.274;2022-10-28T08:31:01;21.69;60.61
75865;HTU21D;64510;46.704;38.274;2022-10-28T08:33:29;21.70;60.64
75865;HTU21D;64510;46.704;38.274;2022-10-28T08:35:56;21.70;60.62
75865;HTU21D;64510;46.704;38.274;2022-10-28T08:38:22;21.70;60.60
75865;HTU21D;64510;46.704;38.274;2022-10-28T08:49:23;21.74;60.60
75865;HTU21D;64510;46.704;38.274;2022-10-28T08:52:01;21.74;60.55
75865;HTU21D;64510;46.704;38.274;2022-10-28T08:54:54;21.76;60.54
75865;HTU21D;64510;46.704;38.274;2022-10-28T08:57:42;21.77;60.54
75865;HTU21D;64510;46.704;38.274;2022-10-28T09:00:24;21.78;60.53
75865;HTU21D;64510;46.704;38.274;2022-10-28T09:05:26;21.81;60.51
75865;HTU21D;64510;46.704;38.274;2022-10-28T09:07:53;21.82;60.47
75865;HTU21D;64510;46.704;38.274;2022-10-28T09:10:53;21.83;60.41
75865;HTU21D;64510;46.704;38.274;2022-10-28T09:17:00;21.82;60.41
75865;HTU21D;64510;46.704;38.274;2022-10-28T09:19:13;21.81;60.45
75865;HTU21D;64510;46.704;38.274;2022-10-28T09:24:49;21.81;60.48
75865;HTU21D;64510;46.704;38.274;2022-10-28T09:27:43;21.81;60.44
75865;HTU21D;64510;46.704;38.274;2022-10-28T09:30:35;21.81;60.45
75865;HTU21D;64510;46.704;38.274;2022-10-28T09:33:22;21.82;60.47
75865;HTU21D;64510;46.704;38.274;2022-10-28T09:35:54;21.82;60.49
75865;HTU21D;64510;46.704;38.274;2022-10-28T09:38:33;21.83;60.41
75865;HTU21D;64510;46.704;38.274;2022-10-28T09:46:34;21.84;60.42
75865;HTU21D;64510;46.704;38.274;2022-10-28T09:49:19;21.84;60.38
75865;HTU21D;64510;46.704;38.274;2022-10-28T09:51:51;21.84;60.38
75865;HTU21D;64510;46.704;38.274;2022-10-28T09:54:42;21.83;60.36
75865;HTU21D;64510;46.704;38.274;2022-10-28T09:57:09;21.85;60.41
75865;HTU21D;64510;46.704;38.274;2022-10-28T09:59:35;21.85;60.38
75865;HTU21D;64510;46.704;38.274;2022-10-28T10:02:03;21.85;60.36
75865;HTU21D;64510;46.704;38.274;2022-10-28T10:04:29;21.87;60.35
75865;HTU21D;64510;46.704;38.274;2022-10-28T10:07:08;21.85;60.28
75865;HTU21D;64510;46.704;38.274;2022-10-28T10:09:36;21.85;60.33
75865;HTU21D;64510;46.704;38.274;2022-10-28T10:12:10;21.84;60.28
75865;HTU21D;64510;46.704;38.274;2022-10-28T10:14:51;21.87;60.28
75865;HTU21D;64510;46.704;38.274;2022-10-28T10:17:27;21.85;60.29
75865;HTU21D;64510;46.704;38.274;2022-10-28T10:22:29;21.77;60.53
75865;HTU21D;64510;46.704;38.274;2022-10-28T10:24:56;21.78;60.51
75865;HTU21D;64510;46.704;38.274;2022-10-28T10:27:24;21.80;60.48
75865;HTU21D;64510;46.704;38.274;2022-10-28T10:29:52;21.80;60.48
75865;HTU21D;64510;46.704;38.274;2022-10-28T10:32:24;21.81;60.43
75865;HTU21D;64510;46.704;38.274;2022-10-28T10:35:17;21.82;60.39
75865;HTU21D;64510;46.704;38.274;2022-10-28T10:37:46;21.81;60.41
75865;HTU21D;64510;46.704;38.274;2022-10-28T10:40:20;21.82;60.35
75865;HTU21D;64510;46.704;38.274;2022-10-28T10:42:48;21.82;60.39
75865;HTU21D;64510;46.704;38.274;2022-10-28T10:45:25;21.83;60.31
75865;HTU21D;64510;46.704;38.274;2022-10-28T10:48:13;21.83;60.31
75865;HTU21D;64510;46.704;38.274;2022-10-28T10:50:42;21.83;60.35
75865;HTU21D;64510;46.704;38.274;2022-10-28T10:53:24;21.82;60.31
75865;HTU21D;64510;46.704;38.274;2022-10-28T10:55:53;21.83;60.34
75865;HTU21D;64510;46.704;38.274;2022-10-28T10:58:24;21.83;60.35
75865;HTU21D;64510;46.704;38.274;2022-10-28T11:00:54;21.83;60.34
75865;HTU21D;64510;46.704;38.274;2022-10-28T11:03:33;21.82;60.29
75865;HTU21D;64510;46.704;38.274;2022-10-28T11:06:03;21.82;60.35
75865;HTU21D;64510;46.704;38.274;2022-10-28T11:08:39;21.84;60.32
75865;HTU21D;64510;46.704;38.274;2022-10-28T11:13:38;21.83;60.32
75865;HTU21D;64510;46.704;38.274;2022-10-28T11:16:21;21.84;60.27
75865;HTU21D;64510;46.704;38.274;2022-10-28T11:18:50;21.82;60.31
75865;HTU21D;64510;46.704;38.274;2022-10-28T11:21:42;21.82;60.28
75865;HTU21D;64510;46.704;38.274;2022-10-28T11:27:14;21.81;60.32
75865;HTU21D;64510;46.704;38.274;2022-10-28T11:29:45;21.80;60.38
75865;HTU21D;64510;46.704;38.274;2022-10-28T11:38:08;21.81;60.35
75865;HTU21D;64510;46.704;38.274;2022-10-28T11:43:51;21.78;60.38
75865;HTU21D;64510;46.704;38.274;2022-10-28T11:46:29;21.78;60.39
75865;HTU21D;64510;46.704;38.274;2022-10-28T11:54:19;21.80;60.38
75865;HTU21D;64510;46.704;38.274;2022-10-28T11:57:08;21.78;60.38
75865;HTU21D;64510;46.704;38.274;2022-10-28T12:02:31;21.77;60.47
75865;HTU21D;64510;46.704;38.274;2022-10-28T12:05:26;21.78;60.42
75865;HTU21D;64510;46.704;38.274;2022-10-28T12:16:17;21.76;60.51
75865;HTU21D;64510;46.704;38.274;2022-10-28T12:19:07;21.76;60.49
75865;HTU21D;64510;46.704;38.274;2022-10-28T12:21:39;21.75;60.54
75865;HTU21D;64510;46.704;38.274;2022-10-28T12:24:13;21.77;60.49
75865;HTU21D;64510;46.704;38.274;2022-10-28T12:26:44;21.75;60.51
75865;HTU21D;64510;46.704;38.274;2022-10-28T12:29:30;21.76;60.51
75865;HTU21D;64510;46.704;38.274;2022-10-28T12:32:04;21.76;60.52
75865;HTU21D;64510;46.704;38.274;2022-10-28T12:34:40;21.76;60.49
75865;HTU21D;64510;46.704;38.274;2022-10-28T12:37:12;21.76;60.53
75865;HTU21D;64510;46.704;38.274;2022-10-28T12:42:27;21.70;60.64
75865;HTU21D;64510;46.704;38.274;2022-10-28T12:44:57;21.68;60.72
75865;HTU21D;64510;46.704;38.274;2022-10-28T12:47:59;21.69;60.69
75865;HTU21D;64510;46.704;38.274;2022-10-28T12:53:39;21.67;60.70
75865;HTU21D;64510;46.704;38.274;2022-10-28T12:56:11;21.69;60.73
75865;HTU21D;64510;46.704;38.274;2022-10-28T12:58:52;21.69;60.68
75865;HTU21D;64510;46.704;38.274;2022-10-28T13:01:27;21.70;60.70
75865;HTU21D;64510;46.704;38.274;2022-10-28T13:03:55;21.69;60.72
75865;HTU21D;64510;46.704;38.274;2022-10-28T13:23:04;21.70;60.65
75865;HTU21D;64510;46.704;38.274;2022-10-28T13:28:03;21.72;60.70
75865;HTU21D;64510;46.704;38.274;2022-10-28T13:30:29;21.70;60.70
75865;HTU21D;64510;46.704;38.274;2022-10-28T13:33:04;21.64;60.86
75865;HTU21D;64510;46.704;38.274;2022-10-28T13:35:31;21.66;60.83
75865;HTU21D;64510;46.704;38.274;2022-10-28T13:37:58;21.65;60.83
75865;HTU21D;64510;46.704;38.274;2022-10-28T13:43:00;21.67;60.80
75865;HTU21D;64510;46.704;38.274;2022-10-28T13:45:48;21.67;60.73
75865;HTU21D;64510;46.704;38.274;2022-10-28T14:09:31;21.69;60.74
75865;HTU21D;64510;46.704;38.274;2022-10-28T14:12:31;21.68;60.72
75865;HTU21D;64510;46.704;38.274;2022-10-28T14:15:03;21.61;60.93
75865;HTU21D;64510;46.704;38.274;2022-10-28T14:17:41;21.62;60.88
75865;HTU21D;64510;46.704;38.274;2022-10-28T14:20:25;21.62;60.91
75865;HTU21D;64510;46.704;38.274;2022-10-28T14:22:53;21.62;60.96
75865;HTU21D;64510;46.704;38.274;2022-10-28T14:33:48;21.65;60.84
75865;HTU21D;64510;46.704;38.274;2022-10-28T14:36:52;21.64;60.84
75865;HTU21D;64510;46.704;38.274;2022-10-28T14:39:59;21.64;60.87
75865;HTU21D;64510;46.704;38.274;2022-10-28T14:45:39;21.64;60.88
75865;HTU21D;64510;46.704;38.274;2022-10-28T14:48:35;21.65;60.90
75865;HTU21D;64510;46.704;38.274;2022-10-28T14:50:57;21.64;60.93
75865;HTU21D;64510;46.704;38.274;2022-10-28T14:53:31;21.66;60.86
75865;HTU21D;64510;46.704;38.274;2022-10-28T14:56:26;21.65;60.85
75865;HTU21D;64510;46.704;38.274;2022-10-28T14:58:56;21.65;60.86
75865;HTU21D;64510;46.704;38.274;2022-10-28T15:01:23;21.57;61.02
75865;HTU21D;64510;46.704;38.274;2022-10-28T15:03:53;21.60;60.99
75865;HTU21D;64510;46.704;38.274;2022-10-28T15:08:52;21.61;61.02
75865;HTU21D;64510;46.704;38.274;2022-10-28T15:11:19;21.61;60.98
75865;HTU21D;64510;46.704;38.274;2022-10-28T15:13:52;21.64;60.89
75865;HTU21D;64510;46.704;38.274;2022-10-28T15:16:23;21.66;60.89
75865;HTU21D;64510;46.704;38.274;2022-10-28T15:18:52;21.65;60.91
75865;HTU21D;64510;46.704;38.274;2022-10-28T15:21:20;21.65;60.89
75865;HTU21D;64510;46.704;38.274;2022-10-28T15:24:00;21.66;60.82
75865;HTU21D;64510;46.704;38.274;2022-10-28T15:26:26;21.66;60.90
75865;HTU21D;64510;46.704;38.274;2022-10-28T15:28:54;21.67;60.87
75865;HTU21D;64510;46.704;38.274;2022-10-28T15:31:20;21.67;60.86
75865;HTU21D;64510;46.704;38.274;2022-10-28T15:33:46;21.67;60.85
75865;HTU21D;64510;46.704;38.274;2022-10-28T15:36:17;21.68;60.81
75865;HTU21D;64510;46.704;38.274;2022-10-28T15:38:49;21.67;60.79
75865;HTU21D;64510;46.704;38.274;2022-10-28T15:44:03;21.68;60.79
75865;HTU21D;64510;46.704;38.274;2022-10-28T15:46:31;21.67;60.83
75865;HTU21D;64510;46.704;38.274;2022-10-28T15:49:00;21.68;60.83
75865;HTU21D;64510;46.704;38.274;2022-10-28T15:51:26;21.68;60.85
75865;HTU21D;64510;46.704;38.274;2022-10-28T15:53:54;21.67;60.83
75865;HTU21D;64510;46.704;38.274;2022-10-28T15:56:55;21.67;60.81
75865;HTU21D;64510;46.704;38.274;2022-10-28T15:59:23;21.67;60.86
75865;HTU21D;64510;46.704;38.274;2022-10-28T16:01:50;21.68;60.86
75865;HTU21D;64510;46.704;38.274;2022-10-28T16:06:46;21.68;60.86
75865;HTU21D;64510;46.704;38.274;2022-10-28T16:11:56;21.67;60.88
75865;HTU21D;64510;46.704;38.274;2022-10-28T16:14:39;21.67;60.86
75865;HTU21D;64510;46.704;38.274;2022-10-28T16:17:12;21.66;60.86
75865;HTU21D;64510;46.704;38.274;2022-10-28T16:22:16;21.66;60.93
75865;HTU21D;64510;46.704;38.274;2022-10-28T16:24:43;21.67;60.93
75865;HTU21D;64510;46.704;38.274;2022-10-28T16:27:22;21.66;60.86
75865;HTU21D;64510;46.704;38.274;2022-10-28T16:29:49;21.66;60.92
75865;HTU21D;64510;46.704;38.274;2022-10-28T16:32:17;21.67;60.91
75865;HTU21D;64510;46.704;38.274;2022-10-28T16:34:44;21.66;60.92
75865;HTU21D;64510;46.704;38.274;2022-10-28T16:37:25;21.67;60.87
75865;HTU21D;64510;46.704;38.274;2022-10-28T16:39:53;21.67;60.92
75865;HTU21D;64510;46.704;38.274;2022-10-28T16:42:20;21.67;60.92
75865;HTU21D;64510;46.704;38.274;2022-10-28T16:44:47;21.68;60.93
75865;HTU21D;64510;46.704;38.274;2022-10-28T16:47:16;21.68;60.92
75865;HTU21D;64510;46.704;38.274;2022-10-28T16:49:43;21.67;60.94
75865;HTU21D;64510;46.704;38.274;2022-10-28T16:52:15;21.68;60.90
75865;HTU21D;64510;46.704;38.274;2022-10-28T16:54:42;21.67;60.96
75865;HTU21D;64510;46.704;38.274;2022-10-28T16:57:08;21.67;60.96
75865;HTU21D;64510;46.704;38.274;2022-10-28T16:59:34;21.68;60.93
75865;HTU21D;64510;46.704;38.274;2022-10-28T17:02:00;21.68;60.95
75865;HTU21D;64510;46.704;38.274;2022-10-28T17:04:27;21.68;60.94
75865;HTU21D;64510;46.704;38.274;2022-10-28T17:06:54;21.67;60.93
75865;HTU21D;64510;46.704;38.274;2022-10-28T17:09:20;21.69;60.96
75865;HTU21D;64510;46.704;38.274;2022-10-28T17:11:47;21.69;60.95
75865;HTU21D;64510;46.704;38.274;2022-10-28T17:14:13;21.67;60.95
75865;HTU21D;64510;46.704;38.274;2022-10-28T17:16:39;21.68;60.96
75865;HTU21D;64510;46.704;38.274;2022-10-28T17:19:05;21.68;60.97
75865;HTU21D;64510;46.704;38.274;2022-10-28T17:21:31;21.68;60.96
75865;HTU21D;64510;46.704;38.274;2022-10-28T17:23:57;21.69;60.98
75865;HTU21D;64510;46.704;38.274;2022-10-28T17:26:24;21.68;60.98
75865;HTU21D;64510;46.704;38.274;2022-10-28T17:28:51;21.69;60.96
75865;HTU21D;64510;46.704;38.274;2022-10-28T17:31:17;21.68;60.99
75865;HTU21D;64510;46.704;38.274;2022-10-28T17:33:46;21.70;60.98
75865;HTU21D;64510;46.704;38.274;2022-10-28T17:36:13;21.67;60.99
75865;HTU21D;64510;46.704;38.274;2022-10-28T17:38:39;21.67;61.00
75865;HTU21D;64510;46.704;38.274;2022-10-28T17:41:05;21.68;60.98
75865;HTU21D;64510;46.704;38.274;2022-10-28T17:43:31;21.68;60.99
75865;HTU21D;64510;46.704;38.274;2022-10-28T17:46:05;21.69;60.94
75865;HTU21D;64510;46.704;38.274;2022-10-28T17:48:32;21.68;60.99
75865;HTU21D;64510;46.704;38.274;2022-10-28T17:50:58;21.68;61.02
75865;HTU21D;64510;46.704;38.274;2022-10-28T17:53:26;21.68;61.02
75865;HTU21D;64510;46.704;38.274;2022-10-28T17:55:58;21.67;60.98
75865;HTU21D;64510;46.704;38.274;2022-10-28T17:58:25;21.67;61.04
75865;HTU21D;64510;46.704;38.274;2022-10-28T18:01:04;21.69;61.00
75865;HTU21D;64510;46.704;38.274;2022-10-28T18:03:31;21.68;61.05
75865;HTU21D;64510;46.704;38.274;2022-10-28T18:06:02;21.66;61.06
75865;HTU21D;64510;46.704;38.274;2022-10-28T18:08:33;21.66;61.03
75865;HTU21D;64510;46.704;38.274;2022-10-28T18:11:00;21.67;61.08
75865;HTU21D;64510;46.704;38.274;2022-10-28T18:13:28;21.68;61.07
75865;HTU21D;64510;46.704;38.274;2022-10-28T18:15:55;21.66;61.07